Time;durP1;ratioP1;P1;durP2;ratioP2;P2;SDS_P1;SDS_P2;PMS_P1;PMS_P2;Temp;Humidity;BMP_temperature;BMP_pressure;BME280_temperature;BME280_humidity;BME280_pressure;Samples;Min_cycle;Max_cycle;Signal;HPM_P1;HPM_P2
2023/08/20 00:00:06;;;;;;;13.20;11.80;;;24.30;99.90;;;;;;5045535;28;20511;-52
2023/08/20 00:02:34;;;;;;;14.10;12.67;;;24.20;99.90;;;;;;5049844;28;20486;-52
2023/08/20 00:05:03;;;;;;;13.20;11.90;;;24.10;99.90;;;;;;5040754;28;20570;-51
2023/08/20 00:07:30;;;;;;;15.37;12.60;;;24.10;99.90;;;;;;5047961;28;20474;-51
2023/08/20 00:09:57;;;;;;;13.20;11.87;;;24.00;98.50;;;;;;5049252;28;20496;-51
2023/08/20 00:12:24;;;;;;;14.07;12.67;;;23.90;95.20;;;;;;5051931;28;20492;-51
2023/08/20 00:14:56;;;;;;;13.77;12.57;;;23.90;94.40;;;;;;5051113;28;20446;-52
2023/08/20 00:17:26;;;;;;;17.13;11.87;;;23.80;94.30;;;;;;5050335;28;20515;-53
2023/08/20 00:19:54;;;;;;;14.33;12.70;;;23.80;90.50;;;;;;5047824;28;20441;-51
2023/08/20 00:22:23;;;;;;;17.00;12.23;;;23.70;81.00;;;;;;5051465;28;20478;-51
2023/08/20 00:24:51;;;;;;;14.03;12.60;;;23.60;81.50;;;;;;5042681;28;20473;-51
2023/08/20 00:27:18;;;;;;;14.03;12.73;;;23.60;81.80;;;;;;5049376;28;20531;-51
2023/08/20 00:29:45;;;;;;;14.27;12.77;;;23.50;82.60;;;;;;5051394;28;20920;-51
2023/08/20 00:32:11;;;;;;;13.77;12.47;;;23.40;77.40;;;;;;5053617;28;20516;-51
2023/08/20 00:34:40;;;;;;;16.00;12.87;;;23.30;77.20;;;;;;5054546;28;20446;-51
2023/08/20 00:37:06;;;;;;;18.37;12.77;;;23.30;74.20;;;;;;5055490;28;20495;-52
2023/08/20 00:39:33;;;;;;;13.90;12.70;;;23.30;71.70;;;;;;5054841;28;20571;-51
2023/08/20 00:41:59;;;;;;;14.03;12.57;;;23.20;71.50;;;;;;5044685;28;20487;-50
2023/08/20 00:44:26;;;;;;;14.03;12.67;;;23.20;66.80;;;;;;5053080;28;20971;-51
2023/08/20 00:46:53;;;;;;;13.60;12.27;;;23.10;64.00;;;;;;5054566;28;20501;-51
2023/08/20 00:49:20;;;;;;;14.17;12.57;;;23.10;63.40;;;;;;5050876;28;20457;-52
2023/08/20 00:51:48;;;;;;;13.37;11.93;;;23.10;61.50;;;;;;5055321;28;20521;-51
2023/08/20 00:54:15;;;;;;;13.07;11.80;;;23.00;59.40;;;;;;5054897;28;20484;-51
2023/08/20 00:56:42;;;;;;;14.27;12.57;;;23.00;56.50;;;;;;5054264;28;20508;-52
2023/08/20 00:59:09;;;;;;;15.80;12.40;;;23.00;60.30;;;;;;5043872;28;20505;-52
2023/08/20 01:01:36;;;;;;;13.60;11.57;;;23.10;60.10;;;;;;5049144;28;20505;-51
2023/08/20 01:04:02;;;;;;;46.93;12.63;;;23.00;61.80;;;;;;5053700;28;20489;-51
2023/08/20 01:06:40;;;;;;;12.77;11.37;;;23.10;62.70;;;;;;5053932;28;20897;-50
2023/08/20 01:09:18;;;;;;;13.07;11.77;;;23.10;62.30;;;;;;5053977;28;20465;-51
2023/08/20 01:11:52;;;;;;;12.77;11.67;;;23.10;63.40;;;;;;5054305;28;20511;-50
2023/08/20 01:14:19;;;;;;;15.53;12.00;;;23.10;62.50;;;;;;5052971;28;20492;-51
2023/08/20 01:16:49;;;;;;;11.70;10.70;;;23.10;58.90;;;;;;5045975;28;20565;-51
2023/08/20 01:19:20;;;;;;;12.60;11.23;;;23.10;56.40;;;;;;5052879;28;20519;-51
2023/08/20 01:21:57;;;;;;;13.37;11.70;;;23.10;56.00;;;;;;5053069;28;20520;-51
2023/08/20 01:24:39;;;;;;;13.57;11.20;;;23.10;55.50;;;;;;5046314;28;20841;-51
2023/08/20 01:27:25;;;;;;;11.80;10.50;;;23.10;54.00;;;;;;5053013;28;20494;-52
2023/08/20 01:29:54;;;;;;;12.47;11.17;;;23.20;52.50;;;;;;5053669;28;20990;-52
2023/08/20 01:32:21;;;;;;;12.10;10.90;;;23.30;52.50;;;;;;5050288;28;21161;-52
2023/08/20 01:34:48;;;;;;;18.43;11.47;;;23.30;52.70;;;;;;5052687;28;20461;-52
2023/08/20 01:37:14;;;;;;;12.90;11.27;;;23.30;52.90;;;;;;5052819;28;20934;-51
2023/08/20 01:39:41;;;;;;;13.20;11.87;;;23.30;52.10;;;;;;5054334;28;20446;-51
2023/08/20 01:42:08;;;;;;;14.70;11.30;;;23.30;50.70;;;;;;5052319;28;20517;-52
2023/08/20 01:44:35;;;;;;;11.90;10.63;;;23.30;49.10;;;;;;5053215;28;20503;-51
2023/08/20 01:47:02;;;;;;;13.40;12.10;;;23.30;48.00;;;;;;5053479;28;20520;-51
2023/08/20 01:49:29;;;;;;;21.20;12.40;;;23.20;47.00;;;;;;5045180;28;20466;-51
2023/08/20 01:51:56;;;;;;;14.00;12.70;;;23.20;45.00;;;;;;5053774;28;20502;-51
2023/08/20 01:54:22;;;;;;;24.47;11.73;;;23.20;41.70;;;;;;5048734;28;20490;-51
2023/08/20 01:56:49;;;;;;;14.20;11.17;;;23.20;40.70;;;;;;5051112;28;20509;-50
2023/08/20 01:59:15;;;;;;;13.70;11.70;;;23.10;37.70;;;;;;5052479;28;20509;-52
2023/08/20 02:01:42;;;;;;;14.30;12.10;;;23.10;36.40;;;;;;5053951;28;20893;-51
2023/08/20 02:04:09;;;;;;;17.53;11.23;;;23.10;34.20;;;;;;5051813;28;20879;-51
2023/08/20 02:06:36;;;;;;;17.93;12.50;;;23.10;31.40;;;;;;5051488;28;20466;-51
2023/08/20 02:09:04;;;;;;;12.37;11.27;;;23.10;29.30;;;;;;5052674;28;20494;-51
2023/08/20 02:11:32;;;;;;;17.83;12.73;;;23.00;28.10;;;;;;5052229;28;20545;-51
2023/08/20 02:13:59;;;;;;;13.53;12.23;;;23.00;27.20;;;;;;5049722;28;20939;-51
2023/08/20 02:16:26;;;;;;;18.07;12.23;;;23.00;25.50;;;;;;5052406;28;20862;-51
2023/08/20 02:18:52;;;;;;;14.23;12.73;;;23.00;24.00;;;;;;5043460;28;20517;-50
2023/08/20 02:21:20;;;;;;;14.40;11.53;;;22.90;21.00;;;;;;5050980;28;20493;-51
2023/08/20 02:23:46;;;;;;;17.20;11.63;;;22.80;82.70;;;;;;5051004;28;20465;-51
2023/08/20 02:26:14;;;;;;;14.23;12.73;;;22.80;97.30;;;;;;5051317;28;20553;-52
2023/08/20 02:28:41;;;;;;;12.50;11.20;;;22.90;99.90;;;;;;5049051;28;21024;-51
2023/08/20 02:31:08;;;;;;;13.40;12.20;;;22.80;99.90;;;;;;5053166;28;20548;-51
2023/08/20 02:33:34;;;;;;;22.67;12.27;;;22.80;99.90;;;;;;5052500;28;20963;-52
2023/08/20 02:36:02;;;;;;;15.73;11.53;;;22.80;99.90;;;;;;5049158;28;21351;-50
2023/08/20 02:38:30;;;;;;;12.13;11.03;;;22.70;99.90;;;;;;5051921;28;20477;-51
2023/08/20 02:40:57;;;;;;;14.10;11.87;;;22.70;99.90;;;;;;5050193;28;20482;-51
2023/08/20 02:43:24;;;;;;;13.13;11.83;;;22.70;99.90;;;;;;5052348;28;20508;-51
2023/08/20 02:45:51;;;;;;;12.50;11.30;;;22.70;99.90;;;;;;5051211;28;20466;-51
2023/08/20 02:48:18;;;;;;;13.60;12.40;;;22.70;99.90;;;;;;5050718;28;20516;-51
2023/08/20 02:50:44;;;;;;;12.50;11.00;;;22.60;99.90;;;;;;5050806;28;20860;-52
2023/08/20 02:53:11;;;;;;;18.70;11.40;;;22.60;99.90;;;;;;5050408;28;20494;-51
2023/08/20 02:55:39;;;;;;;12.60;11.30;;;22.50;99.90;;;;;;5045565;28;20492;-50
2023/08/20 02:58:07;;;;;;;15.97;12.17;;;22.50;99.90;;;;;;5046883;28;20513;-52
2023/08/20 03:00:34;;;;;;;17.70;12.17;;;22.50;99.90;;;;;;5050749;28;20468;-50
2023/08/20 03:03:02;;;;;;;15.63;11.90;;;22.50;99.90;;;;;;5048354;28;20449;-51
2023/08/20 03:05:29;;;;;;;17.03;10.80;;;22.50;99.90;;;;;;5051492;28;20469;-50
2023/08/20 03:07:55;;;;;;;11.83;10.60;;;22.50;99.90;;;;;;5052662;28;20442;-50
2023/08/20 03:10:22;;;;;;;24.73;12.47;;;22.50;99.90;;;;;;5051298;28;20990;-51
2023/08/20 03:12:49;;;;;;;14.07;11.90;;;22.40;99.90;;;;;;5050221;28;20517;-52
2023/08/20 03:15:16;;;;;;;14.80;11.33;;;22.40;99.90;;;;;;5050686;28;20546;-51
2023/08/20 03:17:43;;;;;;;12.57;11.10;;;22.40;99.90;;;;;;5052054;28;20513;-50
2023/08/20 03:20:10;;;;;;;13.10;11.50;;;22.30;99.90;;;;;;5052273;28;20450;-51
2023/08/20 03:22:38;;;;;;;17.40;11.20;;;22.30;99.90;;;;;;5064801;22;20998;-51
2023/08/20 03:25:05;;;;;;;17.20;12.37;;;22.30;99.90;;;;;;5050310;28;20838;-52
2023/08/20 03:27:32;;;;;;;13.33;12.00;;;22.30;99.90;;;;;;5047600;28;20458;-51
2023/08/20 03:30:00;;;;;;;14.60;12.53;;;22.30;99.90;;;;;;5048070;28;20461;-50
2023/08/20 03:32:27;;;;;;;12.33;11.17;;;22.30;99.90;;;;;;5045940;28;20584;-50
2023/08/20 03:34:55;;;;;;;12.97;11.23;;;22.30;99.90;;;;;;5031483;28;20477;-56
2023/08/20 03:37:22;;;;;;;18.70;10.90;;;22.20;99.90;;;;;;5029186;28;21160;-51
2023/08/20 03:39:48;;;;;;;11.80;10.70;;;22.20;99.90;;;;;;5031485;28;20911;-51
2023/08/20 03:42:15;;;;;;;14.50;10.10;;;22.20;99.90;;;;;;5028728;28;20510;-51
2023/08/20 03:44:41;;;;;;;11.07;10.07;;;22.20;99.90;;;;;;5029937;28;20883;-52
2023/08/20 03:47:09;;;;;;;13.33;10.63;;;22.10;99.90;;;;;;5023683;28;20484;-50
2023/08/20 03:49:36;;;;;;;15.90;11.13;;;22.10;99.90;;;;;;5030850;28;20498;-55
2023/08/20 03:52:02;;;;;;;18.67;10.83;;;22.10;99.90;;;;;;5029911;28;21094;-50
2023/08/20 03:54:29;;;;;;;14.60;12.27;;;22.20;99.90;;;;;;5029484;28;20486;-52
2023/08/20 03:56:56;;;;;;;13.20;11.90;;;22.10;99.90;;;;;;5029589;28;20461;-54
2023/08/20 03:59:23;;;;;;;18.33;12.13;;;22.10;99.90;;;;;;5029742;28;20513;-51
2023/08/20 04:01:49;;;;;;;16.07;11.20;;;22.00;99.90;;;;;;5028345;28;20487;-53
2023/08/20 04:04:17;;;;;;;16.13;10.77;;;22.00;99.90;;;;;;5028932;28;20465;-50
2023/08/20 04:06:44;;;;;;;11.43;10.43;;;22.00;99.90;;;;;;5029632;28;20506;-51
2023/08/20 04:09:10;;;;;;;14.17;11.60;;;21.90;99.90;;;;;;5027761;28;20550;-51
2023/08/20 04:11:37;;;;;;;13.33;11.30;;;21.90;99.90;;;;;;5028305;28;20510;-50
2023/08/20 04:14:04;;;;;;;13.20;11.80;;;21.90;99.90;;;;;;5029518;28;20963;-51
2023/08/20 04:16:30;;;;;;;17.50;10.77;;;21.80;99.90;;;;;;5026008;28;20942;-50
2023/08/20 04:18:57;;;;;;;12.80;11.50;;;21.80;99.90;;;;;;5025174;28;20581;-51
2023/08/20 04:21:25;;;;;;;15.17;11.37;;;21.80;99.90;;;;;;5027190;28;20927;-50
2023/08/20 04:23:51;;;;;;;14.50;11.77;;;21.80;99.90;;;;;;5028158;28;20467;-49
2023/08/20 04:26:18;;;;;;;12.47;11.20;;;21.70;99.90;;;;;;5026144;28;20486;-51
2023/08/20 04:28:45;;;;;;;13.40;12.00;;;21.70;99.90;;;;;;5024960;28;21133;-51
2023/08/20 04:31:11;;;;;;;14.03;11.67;;;21.70;99.90;;;;;;5028571;28;20525;-51
2023/08/20 04:33:38;;;;;;;18.50;11.73;;;21.70;99.90;;;;;;5024920;28;20517;-51
2023/08/20 04:36:05;;;;;;;12.10;10.60;;;21.60;99.90;;;;;;5027847;28;20548;-50
2023/08/20 04:38:33;;;;;;;11.50;10.40;;;21.60;99.90;;;;;;5026532;28;20550;-50
2023/08/20 04:40:59;;;;;;;13.23;11.83;;;21.70;1.40;;;;;;5029919;28;20462;-51
2023/08/20 04:43:26;;;;;;;16.90;12.93;;;21.70;99.90;;;;;;5029539;28;21000;-51
2023/08/20 04:45:52;;;;;;;13.70;12.30;;;21.70;99.90;;;;;;5028959;28;20535;-50
2023/08/20 04:48:19;;;;;;;11.60;10.60;;;21.70;99.90;;;;;;5027808;28;20896;-51
2023/08/20 04:50:45;;;;;;;15.23;11.47;;;21.70;99.90;;;;;;5026017;28;20491;-51
2023/08/20 04:53:12;;;;;;;14.70;13.13;;;21.80;99.90;;;;;;5025919;28;20585;-52
2023/08/20 04:55:40;;;;;;;16.07;14.20;;;21.80;99.90;;;;;;5028203;28;20454;-50
2023/08/20 04:58:06;;;;;;;14.17;12.20;;;21.80;99.90;;;;;;5023806;28;20984;-51
2023/08/20 05:00:33;;;;;;;14.30;11.77;;;21.80;99.90;;;;;;5026801;28;20462;-51
2023/08/20 05:03:00;;;;;;;16.20;12.57;;;21.90;99.90;;;;;;5029252;28;20518;-51
2023/08/20 05:05:26;;;;;;;19.30;13.37;;;21.90;99.90;;;;;;5029723;28;20462;-51
2023/08/20 05:07:53;;;;;;;13.93;12.50;;;21.90;99.90;;;;;;5020955;28;20464;-50
2023/08/20 05:10:20;;;;;;;16.00;13.63;;;22.00;99.90;;;;;;5023749;28;20487;-51
2023/08/20 05:12:48;;;;;;;14.77;12.87;;;22.00;99.90;;;;;;5024714;28;20593;-50
2023/08/20 05:15:14;;;;;;;18.07;13.57;;;22.10;99.90;;;;;;5030386;28;20497;-51
2023/08/20 05:17:41;;;;;;;17.17;13.70;;;22.20;99.90;;;;;;5031565;28;20459;-51
2023/08/20 05:20:09;;;;;;;16.57;13.20;;;22.20;99.90;;;;;;5034030;28;20458;-50
2023/08/20 05:22:36;;;;;;;15.53;13.23;;;22.20;99.90;;;;;;5033746;28;20518;-50
2023/08/20 05:25:02;;;;;;;17.73;13.70;;;22.30;99.90;;;;;;5032010;28;20544;-51
2023/08/20 05:27:29;;;;;;;15.37;13.10;;;22.30;99.90;;;;;;5032631;28;20494;-51
2023/08/20 05:29:57;;;;;;;15.40;13.27;;;22.30;99.90;;;;;;5033590;28;20451;-51
2023/08/20 05:32:23;;;;;;;13.20;11.90;;;22.40;99.90;;;;;;5033926;28;20478;-51
2023/08/20 05:34:50;;;;;;;14.50;12.40;;;22.40;99.90;;;;;;5030590;28;20549;-50
2023/08/20 05:37:16;;;;;;;14.07;12.67;;;22.50;99.90;;;;;;5031855;28;20490;-50
2023/08/20 05:39:44;;;;;;;15.10;13.60;;;22.50;99.90;;;;;;5026469;28;20580;-51
2023/08/20 05:42:11;;;;;;;14.03;12.30;;;22.50;99.90;;;;;;5031076;28;20511;-50
2023/08/20 05:44:38;;;;;;;16.47;14.43;;;22.60;99.90;;;;;;5028358;28;20486;-50
2023/08/20 05:47:06;;;;;;;15.77;12.97;;;22.60;99.90;;;;;;5032159;28;20458;-51
2023/08/20 05:49:33;;;;;;;15.77;13.90;;;22.60;99.90;;;;;;5031085;28;21201;-50
2023/08/20 05:51:59;;;;;;;16.40;13.13;;;22.50;99.90;;;;;;5029607;28;20524;-52
2023/08/20 05:54:26;;;;;;;16.70;12.13;;;22.60;99.90;;;;;;5026287;28;20516;-50
2023/08/20 05:56:52;;;;;;;14.73;12.03;;;22.60;99.90;;;;;;5029766;28;20570;-50
2023/08/20 05:59:19;;;;;;;16.20;14.47;;;22.70;99.90;;;;;;5028293;28;20517;-51
2023/08/20 06:01:45;;;;;;;15.07;13.67;;;22.60;99.90;;;;;;5030956;28;20478;-51
2023/08/20 06:04:13;;;;;;;16.13;14.43;;;22.60;99.90;;;;;;5026651;28;20699;-51
2023/08/20 06:06:40;;;;;;;14.60;13.13;;;22.60;99.90;;;;;;5033548;28;20462;-49
2023/08/20 06:09:07;;;;;;;16.50;12.53;;;22.60;99.90;;;;;;5030922;28;20455;-51
2023/08/20 06:11:33;;;;;;;14.50;13.00;;;22.50;99.90;;;;;;5031960;28;20574;-50
2023/08/20 06:14:00;;;;;;;15.67;14.13;;;22.50;99.90;;;;;;5031697;28;20478;-50
2023/08/20 06:16:26;;;;;;;15.23;13.20;;;22.60;99.90;;;;;;5029012;28;20454;-50
2023/08/20 06:18:53;;;;;;;16.80;12.63;;;22.60;99.90;;;;;;5032345;28;20483;-50
2023/08/20 06:21:21;;;;;;;17.10;13.90;;;22.60;99.90;;;;;;5032595;28;20439;-51
2023/08/20 06:23:48;;;;;;;14.90;13.30;;;22.60;99.90;;;;;;5029355;28;20467;-51
2023/08/20 06:26:14;;;;;;;16.10;13.17;;;22.70;99.90;;;;;;5029872;28;20521;-51
2023/08/20 06:28:41;;;;;;;14.47;12.97;;;22.70;99.90;;;;;;5032266;28;21024;-51
2023/08/20 06:31:07;;;;;;;16.70;11.97;;;22.70;99.90;;;;;;5030320;28;20458;-51
2023/08/20 06:33:34;;;;;;;21.70;13.13;;;22.80;99.90;;;;;;5038473;28;20496;-51
2023/08/20 06:36:00;;;;;;;15.67;12.90;;;22.70;99.90;;;;;;5031645;28;20481;-51
2023/08/20 06:38:28;;;;;;;16.93;12.27;;;22.80;99.90;;;;;;5031429;28;20476;-51
2023/08/20 06:40:55;;;;;;;13.37;11.97;;;22.70;99.90;;;;;;5030972;28;20908;-49
2023/08/20 06:43:21;;;;;;;12.87;11.40;;;22.70;99.90;;;;;;5031563;28;20505;-50
2023/08/20 06:45:48;;;;;;;14.40;13.00;;;22.70;99.90;;;;;;5030468;28;20501;-50
2023/08/20 06:48:16;;;;;;;22.83;12.27;;;22.70;99.90;;;;;;5031667;28;20512;-51
2023/08/20 06:50:43;;;;;;;15.23;13.53;;;22.70;99.90;;;;;;5025831;28;20474;-51
2023/08/20 06:53:09;;;;;;;13.90;12.20;;;22.70;99.90;;;;;;5030995;28;20474;-51
2023/08/20 06:55:37;;;;;;;15.00;12.07;;;22.70;99.90;;;;;;5029657;28;20482;-50
2023/08/20 06:58:04;;;;;;;15.43;12.30;;;22.70;99.90;;;;;;5026274;28;20517;-51
2023/08/20 07:00:30;;;;;;;17.07;12.80;;;22.60;99.90;;;;;;5032122;28;20486;-51
2023/08/20 07:02:57;;;;;;;15.00;13.43;;;22.60;99.90;;;;;;5031867;28;20514;-52
2023/08/20 07:05:24;;;;;;;16.70;12.30;;;22.60;99.90;;;;;;5026985;28;20486;-51
2023/08/20 07:07:50;;;;;;;13.77;12.40;;;22.60;99.90;;;;;;5024571;28;20490;-51
2023/08/20 07:10:17;;;;;;;13.13;11.60;;;22.70;99.90;;;;;;5031315;28;20505;-51
2023/08/20 07:12:44;;;;;;;16.20;10.77;;;22.60;99.90;;;;;;5028689;28;20985;-51
2023/08/20 07:15:11;;;;;;;15.00;12.10;;;22.60;99.90;;;;;;5031929;28;20936;-51
2023/08/20 07:17:38;;;;;;;13.60;12.03;;;22.70;99.90;;;;;;5032443;28;20492;-51
2023/08/20 07:20:06;;;;;;;20.63;12.77;;;22.60;99.90;;;;;;5032154;28;20479;-51
2023/08/20 07:22:33;;;;;;;13.90;12.00;;;22.60;99.90;;;;;;5032691;28;20522;-52
2023/08/20 07:24:59;;;;;;;16.13;13.00;;;22.60;99.90;;;;;;5029019;28;20498;-51
2023/08/20 07:27:26;;;;;;;15.03;10.80;;;22.60;99.90;;;;;;5025596;28;20956;-52
2023/08/20 07:29:54;;;;;;;13.77;10.80;;;22.70;99.90;;;;;;5027811;28;20499;-52
2023/08/20 07:32:20;;;;;;;13.90;11.50;;;22.70;99.90;;;;;;5029486;28;20522;-53
2023/08/20 07:34:47;;;;;;;18.43;10.20;;;22.70;99.90;;;;;;5031490;28;20451;-52
2023/08/20 07:37:13;;;;;;;14.40;11.80;;;22.70;99.90;;;;;;5025945;28;20871;-51
2023/08/20 07:39:40;;;;;;;14.50;11.27;;;22.60;99.90;;;;;;5027213;28;20521;-53
2023/08/20 07:42:07;;;;;;;11.80;10.00;;;22.50;99.90;;;;;;5030396;28;20541;-53
2023/08/20 07:44:34;;;;;;;11.30;10.30;;;22.50;99.90;;;;;;5028822;28;20458;-53
2023/08/20 07:47:02;;;;;;;11.47;10.13;;;22.50;99.90;;;;;;5029752;28;20541;-51
2023/08/20 07:49:28;;;;;;;12.03;10.70;;;22.60;99.90;;;;;;5027168;28;20461;-53
2023/08/20 07:51:56;;;;;;;13.20;11.20;;;22.70;99.90;;;;;;5028035;28;20540;-53
2023/08/20 07:54:22;;;;;;;13.07;10.50;;;22.70;99.90;;;;;;5028438;28;20462;-53
2023/08/20 07:56:49;;;;;;;14.50;12.67;;;22.80;99.90;;;;;;5030272;28;20491;-52
2023/08/20 07:59:15;;;;;;;11.13;9.93;;;22.90;99.90;;;;;;5029939;28;20935;-52
2023/08/20 08:01:42;;;;;;;14.13;12.73;;;23.00;99.90;;;;;;5026429;28;20562;-52
2023/08/20 08:04:09;;;;;;;13.40;12.10;;;23.00;99.90;;;;;;5028162;28;20494;-53
2023/08/20 08:06:36;;;;;;;15.00;12.27;;;22.90;99.90;;;;;;5027989;28;20675;-52
2023/08/20 08:09:22;;;;;;;13.80;12.40;;;22.90;99.90;;;;;;5030178;28;20494;-52
2023/08/20 08:11:50;;;;;;;13.20;11.13;;;22.90;99.90;;;;;;5028392;28;20566;-52
2023/08/20 08:14:16;;;;;;;11.83;10.70;;;23.00;99.90;;;;;;5027400;28;20801;-52
2023/08/20 08:16:43;;;;;;;14.77;10.57;;;23.10;99.90;;;;;;5031825;28;21000;-52
2023/08/20 08:19:11;;;;;;;12.50;10.13;;;23.20;99.90;;;;;;5027018;28;20589;-52
2023/08/20 08:21:37;;;;;;;13.07;9.40;;;23.40;89.10;;;;;;5029155;28;20495;-53
2023/08/20 08:24:05;;;;;;;11.67;10.10;;;23.50;23.80;;;;;;5024572;28;20526;-52
2023/08/20 08:26:32;;;;;;;14.40;10.43;;;23.60;24.10;;;;;;5027772;28;20505;-52
2023/08/20 08:28:59;;;;;;;10.97;8.73;;;23.70;33.40;;;;;;5029642;28;20463;-52
2023/08/20 08:31:25;;;;;;;10.43;9.40;;;23.70;42.30;;;;;;5029716;28;20510;-52
2023/08/20 08:33:52;;;;;;;11.47;8.27;;;23.70;41.20;;;;;;5027298;28;20508;-53
2023/08/20 08:36:19;;;;;;;9.03;8.10;;;23.80;36.40;;;;;;5027078;28;20493;-52
2023/08/20 08:38:46;;;;;;;10.10;9.00;;;23.80;41.50;;;;;;5028868;28;20930;-52
2023/08/20 08:41:14;;;;;;;8.67;7.77;;;23.90;46.80;;;;;;5025693;28;20494;-52
2023/08/20 08:43:41;;;;;;;9.27;8.27;;;24.00;44.60;;;;;;5030264;28;20494;-52
2023/08/20 08:46:12;;;;;;;11.77;8.87;;;24.10;53.90;;;;;;5030730;28;20924;-52
2023/08/20 08:48:41;;;;;;;11.90;9.10;;;24.20;52.40;;;;;;5028387;28;20513;-55
2023/08/20 08:51:07;;;;;;;10.70;7.77;;;24.50;56.60;;;;;;5027292;28;20529;-53
2023/08/20 08:53:36;;;;;;;9.87;8.53;;;24.60;70.20;;;;;;5032920;28;20490;-50
2023/08/20 08:56:05;;;;;;;10.80;9.10;;;24.80;73.00;;;;;;5033539;28;21024;-50
2023/08/20 08:58:32;;;;;;;12.33;8.63;;;24.80;88.90;;;;;;5034447;28;20561;-50
2023/08/20 09:00:58;;;;;;;10.73;9.50;;;24.90;85.70;;;;;;5032167;28;20561;-50
2023/08/20 09:03:25;;;;;;;11.43;7.30;;;24.90;86.10;;;;;;5026472;28;20506;-50
2023/08/20 09:05:57;;;;;;;9.93;7.80;;;25.10;83.10;;;;;;5031136;28;20952;-50
2023/08/20 09:08:27;;;;;;;9.47;7.80;;;25.40;84.50;;;;;;5030305;28;21102;-50
2023/08/20 09:10:56;;;;;;;10.23;7.70;;;25.50;98.70;;;;;;5030687;28;20537;-50
2023/08/20 09:13:24;;;;;;;11.17;7.30;;;25.50;99.90;;;;;;5032871;28;20935;-50
2023/08/20 09:15:52;;;;;;;11.03;8.43;;;25.60;98.20;;;;;;5033169;28;20466;-50
2023/08/20 09:18:18;;;;;;;7.87;6.83;;;25.60;99.90;;;;;;5033186;28;20477;-49
2023/08/20 09:20:45;;;;;;;9.03;8.10;;;25.70;99.90;;;;;;5036580;28;20524;-50
2023/08/20 09:23:13;;;;;;;8.33;6.27;;;25.80;99.90;;;;;;5034446;28;20491;-50
2023/08/20 09:25:40;;;;;;;8.00;7.23;;;26.50;99.90;;;;;;5030561;28;20466;-50
2023/08/20 09:28:07;;;;;;;7.70;7.00;;;26.90;99.90;;;;;;5031447;28;20540;-50
2023/08/20 09:30:34;;;;;;;6.70;6.07;;;27.10;99.90;;;;;;5033774;28;21035;-49
2023/08/20 09:33:05;;;;;;;8.57;6.70;;;27.00;99.90;;;;;;5032767;28;20484;-50
2023/08/20 09:35:32;;;;;;;7.97;7.17;;;26.90;99.90;;;;;;5028019;28;20466;-52
2023/08/20 09:38:02;;;;;;;9.63;6.17;;;26.90;99.90;;;;;;5030771;28;20991;-53
2023/08/20 09:40:29;;;;;;;6.67;5.93;;;26.70;99.90;;;;;;5031628;28;20482;-52
2023/08/20 09:42:57;;;;;;;6.10;5.60;;;26.60;99.90;;;;;;5029156;28;20513;-51
2023/08/20 09:45:26;;;;;;;9.23;6.27;;;26.90;99.90;;;;;;5028426;28;20459;-52
2023/08/20 09:47:57;;;;;;;6.87;6.27;;;27.30;99.90;;;;;;5034787;28;20458;-51
2023/08/20 09:50:24;;;;;;;7.43;5.33;;;27.60;99.90;;;;;;5029329;28;20457;-50
2023/08/20 09:52:58;;;;;;;6.27;5.13;;;27.70;99.90;;;;;;5029609;28;21004;-51
2023/08/20 09:55:31;;;;;;;7.27;4.80;;;27.40;99.90;;;;;;5024280;28;20504;-52
2023/08/20 09:57:59;;;;;;;4.47;3.37;;;27.50;29.50;;;;;;5030157;28;20493;-51
2023/08/20 10:00:28;;;;;;;6.83;2.97;;;27.30;41.70;;;;;;5032426;28;20483;-50
2023/08/20 10:02:55;;;;;;;2.93;2.73;;;27.70;52.20;;;;;;5028279;28;20474;-52
2023/08/20 10:05:24;;;;;;;4.83;3.40;;;28.00;74.30;;;;;;5029239;28;20876;-53
2023/08/20 10:07:51;;;;;;;3.10;2.67;;;27.90;75.10;;;;;;5026564;28;20553;-51
2023/08/20 10:10:18;;;;;;;2.53;2.33;;;28.10;86.50;;;;;;5021729;28;20451;-51
2023/08/20 10:12:45;;;;;;;2.50;2.30;;;28.40;95.40;;;;;;5025556;28;20557;-53
2023/08/20 10:15:13;;;;;;;3.00;2.60;;;29.10;99.90;;;;;;5026169;28;20460;-52
2023/08/20 10:17:44;;;;;;;2.87;2.30;;;29.50;99.90;;;;;;5029013;28;20483;-52
2023/08/20 10:20:14;;;;;;;7.00;2.33;;;30.20;99.90;;;;;;5031424;28;20568;-51
2023/08/20 10:22:42;;;;;;;2.97;2.20;;;30.10;99.90;;;;;;5030175;28;20514;-53
2023/08/20 10:25:10;;;;;;;2.60;2.07;;;30.30;99.90;;;;;;5026902;28;20494;-51
2023/08/20 10:27:38;;;;;;;1.80;1.70;;;30.40;99.90;;;;;;5029314;28;20483;-52
2023/08/20 10:30:15;;;;;;;5.03;1.83;;;31.00;99.90;;;;;;5027028;28;20484;-52
2023/08/20 10:32:47;;;;;;;2.10;1.90;;;30.40;99.90;;;;;;5027557;28;20550;-52
2023/08/20 10:35:13;;;;;;;5.50;2.13;;;29.80;99.90;;;;;;5027617;28;20469;-52
2023/08/20 10:38:00;;;;;;;2.07;1.87;;;30.60;99.90;;;;;;5029565;28;20468;-53
2023/08/20 10:40:48;;;;;;;2.27;1.97;;;30.60;99.90;;;;;;5028100;28;20532;-52
2023/08/20 10:43:28;;;;;;;3.33;2.57;;;30.70;99.90;;;;;;5019382;28;20519;-51
2023/08/20 10:46:18;;;;;;;2.80;1.87;;;30.30;99.90;;;;;;5029551;28;20462;-51
2023/08/20 10:48:49;;;;;;;2.10;1.90;;;31.10;99.90;;;;;;5028232;28;21026;-51
2023/08/20 10:51:17;;;;;;;1.90;1.33;;;30.50;99.90;;;;;;5026390;28;20455;-52
2023/08/20 10:53:48;;;;;;;2.87;1.83;;;31.40;99.90;;;;;;5029725;28;20545;-50
2023/08/20 10:56:17;;;;;;;3.93;1.53;;;32.30;99.90;;;;;;5036384;28;20462;-50
2023/08/20 10:58:45;;;;;;;2.60;2.37;;;31.00;99.90;;;;;;5036512;28;20479;-50
2023/08/20 11:01:16;;;;;;;9.30;1.83;;;30.00;99.90;;;;;;5031663;28;20540;-51
2023/08/20 11:03:45;;;;;;;2.30;1.80;;;30.40;99.90;;;;;;5029010;28;20463;-50
2023/08/20 11:06:13;;;;;;;1.93;1.83;;;30.00;99.90;;;;;;5030678;28;20564;-50
2023/08/20 11:08:40;;;;;;;2.00;1.80;;;30.70;99.90;;;;;;5031704;28;20574;-51
2023/08/20 11:11:07;;;;;;;2.03;1.60;;;31.00;99.90;;;;;;5031653;28;20963;-51
2023/08/20 11:13:35;;;;;;;2.60;1.70;;;30.50;99.90;;;;;;5031777;28;20473;-51
2023/08/20 11:16:03;;;;;;;2.20;1.50;;;30.30;99.90;;;;;;5031827;28;20494;-50
2023/08/20 11:18:31;;;;;;;5.13;2.10;;;30.00;99.90;;;;;;5029977;28;20464;-51
2023/08/20 11:20:59;;;;;;;2.03;1.90;;;30.00;99.90;;;;;;5032938;28;20528;-51
2023/08/20 11:23:26;;;;;;;5.50;1.93;;;30.20;99.90;;;;;;5025776;28;20575;-52
2023/08/20 11:25:52;;;;;;;2.93;2.00;;;30.80;99.90;;;;;;5028766;28;20486;-51
2023/08/20 11:28:19;;;;;;;5.47;1.90;;;31.60;99.90;;;;;;5028505;28;20518;-50
2023/08/20 11:30:47;;;;;;;3.77;1.60;;;31.80;99.90;;;;;;5031467;28;20494;-51
2023/08/20 11:33:14;;;;;;;4.40;1.77;;;31.50;99.90;;;;;;5022971;28;20519;-50
2023/08/20 11:35:42;;;;;;;2.63;1.70;;;30.00;99.90;;;;;;5031588;28;20443;-55
2023/08/20 11:38:10;;;;;;;2.93;2.00;;;29.80;99.90;;;;;;5030227;28;21022;-55
2023/08/20 11:40:37;;;;;;;4.70;1.93;;;29.50;99.90;;;;;;5025644;28;21355;-54
2023/08/20 11:43:04;;;;;;;7.37;2.97;;;29.10;99.90;;;;;;5028491;28;20510;-55
2023/08/20 11:45:32;;;;;;;13.73;2.10;;;29.20;99.90;;;;;;5031284;28;20439;-55
2023/08/20 11:47:59;;;;;;;1.80;1.70;;;29.10;99.90;;;;;;5034329;28;20561;-53
2023/08/20 11:50:25;;;;;;;2.60;1.83;;;29.10;99.90;;;;;;5030510;28;20532;-51
2023/08/20 11:52:54;;;;;;;4.23;2.07;;;28.70;99.90;;;;;;5030485;28;20513;-51
2023/08/20 11:55:26;;;;;;;2.20;2.00;;;29.00;99.90;;;;;;5025809;28;20541;-52
2023/08/20 11:57:52;;;;;;;2.13;1.47;;;29.20;99.90;;;;;;5025286;28;21017;-52
2023/08/20 12:00:27;;;;;;;1.70;1.53;;;29.30;99.90;;;;;;5026493;28;20585;-51
2023/08/20 12:02:55;;;;;;;6.23;1.80;;;29.10;99.90;;;;;;5022865;28;20481;-51
2023/08/20 12:05:21;;;;;;;2.87;1.70;;;29.20;99.90;;;;;;5027810;28;20458;-52
2023/08/20 12:07:56;;;;;;;4.50;2.13;;;29.00;99.90;;;;;;5030225;28;20473;-52
2023/08/20 12:10:24;;;;;;;2.00;1.50;;;29.10;99.90;;;;;;5027458;28;20581;-53
2023/08/20 12:12:51;;;;;;;5.70;1.40;;;29.10;99.90;;;;;;5027172;28;20514;-53
2023/08/20 12:15:18;;;;;;;3.03;1.60;;;29.20;99.90;;;;;;5027450;28;20866;-52
2023/08/20 12:17:45;;;;;;;7.27;2.07;;;29.40;99.90;;;;;;5026656;28;20463;-52
2023/08/20 12:20:12;;;;;;;6.83;1.93;;;29.10;99.90;;;;;;5028293;28;20904;-53
2023/08/20 12:22:39;;;;;;;3.20;1.67;;;30.20;99.90;;;;;;5024061;28;20867;-53
2023/08/20 12:25:06;;;;;;;6.40;1.40;;;30.60;99.90;;;;;;5027946;28;20509;-52
2023/08/20 12:27:34;;;;;;;2.60;1.40;;;30.90;99.90;;;;;;5025209;28;20550;-52
2023/08/20 12:30:01;;;;;;;2.60;1.07;;;30.50;99.90;;;;;;5033116;28;20442;-52
2023/08/20 12:32:27;;;;;;;4.93;1.30;;;30.60;99.90;;;;;;5036227;28;20469;-50
2023/08/20 12:34:54;;;;;;;2.93;1.30;;;30.50;99.90;;;;;;5037963;28;20519;-51